sensor_id;sensor_type;location;lat;lon;timestamp;P1;durP1;ratioP1;P2;durP2;ratioP2
21987;SDS011;11158;53.404;-1.510;2022-11-11T00:01:01;7.85;;;2.67;;
21987;SDS011;11158;53.404;-1.510;2022-11-11T00:03:27;5.25;;;2.50;;
21987;SDS011;11158;53.404;-1.510;2022-11-11T00:05:53;6.38;;;2.50;;
21987;SDS011;11158;53.404;-1.510;2022-11-11T00:08:19;7.18;;;2.45;;
21987;SDS011;11158;53.404;-1.510;2022-11-11T00:10:45;6.60;;;2.60;;
21987;SDS011;11158;53.404;-1.510;2022-11-11T00:13:11;7.28;;;2.75;;
21987;SDS011;11158;53.404;-1.510;2022-11-11T00:15:37;8.10;;;2.75;;
21987;SDS011;11158;53.404;-1.510;2022-11-11T00:18:05;5.95;;;2.70;;
21987;SDS011;11158;53.404;-1.510;2022-11-11T00:20:52;11.48;;;3.10;;
21987;SDS011;11158;53.404;-1.510;2022-11-11T00:23:36;5.88;;;3.00;;
21987;SDS011;11158;53.404;-1.510;2022-11-11T00:26:20;5.90;;;2.60;;
21987;SDS011;11158;53.404;-1.510;2022-11-11T00:28:46;10.40;;;3.35;;
21987;SDS011;11158;53.404;-1.510;2022-11-11T00:31:12;6.40;;;3.08;;
21987;SDS011;11158;53.404;-1.510;2022-11-11T00:33:39;6.93;;;2.95;;
21987;SDS011;11158;53.404;-1.510;2022-11-11T00:36:05;4.78;;;2.72;;
21987;SDS011;11158;53.404;-1.510;2022-11-11T00:38:32;6.07;;;2.95;;
21987;SDS011;11158;53.404;-1.510;2022-11-11T00:41:10;9.85;;;2.90;;
21987;SDS011;11158;53.404;-1.510;2022-11-11T00:43:41;5.75;;;3.15;;
21987;SDS011;11158;53.404;-1.510;2022-11-11T00:46:07;7.65;;;2.70;;
21987;SDS011;11158;53.404;-1.510;2022-11-11T00:48:52;5.15;;;2.00;;
21987;SDS011;11158;53.404;-1.510;2022-11-11T00:51:36;6.95;;;2.63;;
21987;SDS011;11158;53.404;-1.510;2022-11-11T00:54:02;5.85;;;2.53;;
21987;SDS011;11158;53.404;-1.510;2022-11-11T00:56:28;8.02;;;2.60;;
21987;SDS011;11158;53.404;-1.510;2022-11-11T00:58:54;7.43;;;2.42;;
21987;SDS011;11158;53.404;-1.510;2022-11-11T01:01:19;5.60;;;2.40;;
21987;SDS011;11158;53.404;-1.510;2022-11-11T01:03:46;4.72;;;2.55;;
21987;SDS011;11158;53.404;-1.510;2022-11-11T01:06:13;6.85;;;2.50;;
21987;SDS011;11158;53.404;-1.510;2022-11-11T01:08:39;5.70;;;2.42;;
21987;SDS011;11158;53.404;-1.510;2022-11-11T01:11:12;4.32;;;2.33;;
21987;SDS011;11158;53.404;-1.510;2022-11-11T01:13:46;5.85;;;2.40;;
21987;SDS011;11158;53.404;-1.510;2022-11-11T01:16:13;5.70;;;2.42;;
21987;SDS011;11158;53.404;-1.510;2022-11-11T01:18:40;5.10;;;2.13;;
21987;SDS011;11158;53.404;-1.510;2022-11-11T01:21:07;4.70;;;2.38;;
21987;SDS011;11158;53.404;-1.510;2022-11-11T01:23:38;5.13;;;2.38;;
21987;SDS011;11158;53.404;-1.510;2022-11-11T01:26:10;3.97;;;1.85;;
21987;SDS011;11158;53.404;-1.510;2022-11-11T01:28:39;6.95;;;2.17;;
21987;SDS011;11158;53.404;-1.510;2022-11-11T01:31:06;5.18;;;2.60;;
21987;SDS011;11158;53.404;-1.510;2022-11-11T01:33:33;8.23;;;2.35;;
21987;SDS011;11158;53.404;-1.510;2022-11-11T01:36:03;5.00;;;2.20;;
21987;SDS011;11158;53.404;-1.510;2022-11-11T01:38:35;6.45;;;2.30;;
21987;SDS011;11158;53.404;-1.510;2022-11-11T01:41:02;9.05;;;3.08;;
21987;SDS011;11158;53.404;-1.510;2022-11-11T01:43:48;5.03;;;2.10;;
21987;SDS011;11158;53.404;-1.510;2022-11-11T01:57:36;4.75;;;1.83;;
21987;SDS011;11158;53.404;-1.510;2022-11-11T02:00:09;8.85;;;2.00;;
21987;SDS011;11158;53.404;-1.510;2022-11-11T02:02:38;3.67;;;1.80;;
21987;SDS011;11158;53.404;-1.510;2022-11-11T02:05:09;3.80;;;1.70;;
21987;SDS011;11158;53.404;-1.510;2022-11-11T02:07:55;6.30;;;1.67;;
21987;SDS011;11158;53.404;-1.510;2022-11-11T02:10:23;4.82;;;1.58;;
21987;SDS011;11158;53.404;-1.510;2022-11-11T02:12:52;7.53;;;1.80;;
21987;SDS011;11158;53.404;-1.510;2022-11-11T02:15:37;4.78;;;1.52;;
21987;SDS011;11158;53.404;-1.510;2022-11-11T02:18:04;3.80;;;1.60;;
21987;SDS011;11158;53.404;-1.510;2022-11-11T02:20:31;3.92;;;1.60;;
21987;SDS011;11158;53.404;-1.510;2022-11-11T02:25:35;4.35;;;1.38;;
21987;SDS011;11158;53.404;-1.510;2022-11-11T02:28:04;4.63;;;1.88;;
21987;SDS011;11158;53.404;-1.510;2022-11-11T02:30:31;4.45;;;1.30;;
21987;SDS011;11158;53.404;-1.510;2022-11-11T02:32:58;4.18;;;1.75;;
21987;SDS011;11158;53.404;-1.510;2022-11-11T02:35:34;4.35;;;1.98;;
21987;SDS011;11158;53.404;-1.510;2022-11-11T02:38:03;4.80;;;1.80;;
21987;SDS011;11158;53.404;-1.510;2022-11-11T02:40:36;4.97;;;2.42;;
21987;SDS011;11158;53.404;-1.510;2022-11-11T02:43:25;3.30;;;1.50;;
21987;SDS011;11158;53.404;-1.510;2022-11-11T02:45:51;3.92;;;1.60;;
21987;SDS011;11158;53.404;-1.510;2022-11-11T02:48:16;4.50;;;1.88;;
21987;SDS011;11158;53.404;-1.510;2022-11-11T02:50:42;4.50;;;1.52;;
21987;SDS011;11158;53.404;-1.510;2022-11-11T02:53:08;2.97;;;1.70;;
21987;SDS011;11158;53.404;-1.510;2022-11-11T02:55:33;5.25;;;1.88;;
21987;SDS011;11158;53.404;-1.510;2022-11-11T02:57:59;4.93;;;1.83;;
21987;SDS011;11158;53.404;-1.510;2022-11-11T03:00:25;3.25;;;1.75;;
21987;SDS011;11158;53.404;-1.510;2022-11-11T03:02:51;2.90;;;1.42;;
21987;SDS011;11158;53.404;-1.510;2022-11-11T03:05:17;4.70;;;1.35;;
21987;SDS011;11158;53.404;-1.510;2022-11-11T03:07:43;4.53;;;1.50;;
21987;SDS011;11158;53.404;-1.510;2022-11-11T03:10:08;4.45;;;1.50;;
21987;SDS011;11158;53.404;-1.510;2022-11-11T03:12:34;3.78;;;1.40;;
21987;SDS011;11158;53.404;-1.510;2022-11-11T03:15:00;2.92;;;1.52;;
21987;SDS011;11158;53.404;-1.510;2022-11-11T03:17:26;6.15;;;1.80;;
21987;SDS011;11158;53.404;-1.510;2022-11-11T03:20:14;4.97;;;1.50;;
21987;SDS011;11158;53.404;-1.510;2022-11-11T03:23:03;3.92;;;1.45;;
21987;SDS011;11158;53.404;-1.510;2022-11-11T03:25:30;5.05;;;1.83;;
21987;SDS011;11158;53.404;-1.510;2022-11-11T03:28:13;5.03;;;1.70;;
21987;SDS011;11158;53.404;-1.510;2022-11-11T03:30:41;4.43;;;1.75;;
21987;SDS011;11158;53.404;-1.510;2022-11-11T03:33:08;2.40;;;1.35;;
21987;SDS011;11158;53.404;-1.510;2022-11-11T03:35:34;6.03;;;1.40;;
21987;SDS011;11158;53.404;-1.510;2022-11-11T03:38:01;5.22;;;1.50;;
21987;SDS011;11158;53.404;-1.510;2022-11-11T03:40:46;4.28;;;1.60;;
21987;SDS011;11158;53.404;-1.510;2022-11-11T03:43:13;4.57;;;1.45;;
21987;SDS011;11158;53.404;-1.510;2022-11-11T03:45:41;2.78;;;1.10;;
21987;SDS011;11158;53.404;-1.510;2022-11-11T03:48:08;1.75;;;1.05;;
21987;SDS011;11158;53.404;-1.510;2022-11-11T03:50:34;3.50;;;1.50;;
21987;SDS011;11158;53.404;-1.510;2022-11-11T03:53:00;3.97;;;1.90;;
21987;SDS011;11158;53.404;-1.510;2022-11-11T03:55:26;4.20;;;1.40;;
21987;SDS011;11158;53.404;-1.510;2022-11-11T03:57:52;2.72;;;1.10;;
21987;SDS011;11158;53.404;-1.510;2022-11-11T04:00:25;4.15;;;1.15;;
21987;SDS011;11158;53.404;-1.510;2022-11-11T04:05:49;3.40;;;1.20;;
21987;SDS011;11158;53.404;-1.510;2022-11-11T04:08:34;2.42;;;1.10;;
21987;SDS011;11158;53.404;-1.510;2022-11-11T04:11:26;3.42;;;1.10;;
21987;SDS011;11158;53.404;-1.510;2022-11-11T04:13:54;3.40;;;1.10;;
21987;SDS011;11158;53.404;-1.510;2022-11-11T04:16:42;3.17;;;1.33;;
21987;SDS011;11158;53.404;-1.510;2022-11-11T04:19:08;3.80;;;1.85;;
21987;SDS011;11158;53.404;-1.510;2022-11-11T04:21:52;6.35;;;1.30;;
21987;SDS011;11158;53.404;-1.510;2022-11-11T04:24:18;3.45;;;1.10;;
21987;SDS011;11158;53.404;-1.510;2022-11-11T04:27:05;3.63;;;1.58;;
21987;SDS011;11158;53.404;-1.510;2022-11-11T04:29:32;4.78;;;1.58;;
21987;SDS011;11158;53.404;-1.510;2022-11-11T04:32:09;5.28;;;1.20;;
21987;SDS011;11158;53.404;-1.510;2022-11-11T04:34:58;6.70;;;1.60;;
21987;SDS011;11158;53.404;-1.510;2022-11-11T04:37:25;3.88;;;1.60;;
21987;SDS011;11158;53.404;-1.510;2022-11-11T04:39:52;4.70;;;1.33;;
21987;SDS011;11158;53.404;-1.510;2022-11-11T04:42:38;3.03;;;1.55;;
21987;SDS011;11158;53.404;-1.510;2022-11-11T04:45:04;3.65;;;1.30;;
21987;SDS011;11158;53.404;-1.510;2022-11-11T04:48:06;3.78;;;1.30;;
21987;SDS011;11158;53.404;-1.510;2022-11-11T04:52:59;3.67;;;1.08;;
21987;SDS011;11158;53.404;-1.510;2022-11-11T04:55:25;4.70;;;1.50;;
21987;SDS011;11158;53.404;-1.510;2022-11-11T04:58:10;6.43;;;1.65;;
21987;SDS011;11158;53.404;-1.510;2022-11-11T05:00:36;3.13;;;1.45;;
21987;SDS011;11158;53.404;-1.510;2022-11-11T05:03:03;2.63;;;1.42;;
21987;SDS011;11158;53.404;-1.510;2022-11-11T05:05:51;2.85;;;1.00;;
21987;SDS011;11158;53.404;-1.510;2022-11-11T05:08:43;3.13;;;1.20;;
21987;SDS011;11158;53.404;-1.510;2022-11-11T05:14:02;3.75;;;1.17;;
21987;SDS011;11158;53.404;-1.510;2022-11-11T05:16:50;4.10;;;1.38;;
21987;SDS011;11158;53.404;-1.510;2022-11-11T05:19:38;4.30;;;1.23;;
21987;SDS011;11158;53.404;-1.510;2022-11-11T05:24:48;1.35;;;1.25;;
21987;SDS011;11158;53.404;-1.510;2022-11-11T05:27:32;2.90;;;1.20;;
21987;SDS011;11158;53.404;-1.510;2022-11-11T05:29:58;3.60;;;1.35;;
21987;SDS011;11158;53.404;-1.510;2022-11-11T05:32:24;5.45;;;1.23;;
21987;SDS011;11158;53.404;-1.510;2022-11-11T05:34:50;1.23;;;1.00;;
21987;SDS011;11158;53.404;-1.510;2022-11-11T05:37:16;2.75;;;1.20;;
21987;SDS011;11158;53.404;-1.510;2022-11-11T05:39:43;1.60;;;1.10;;
21987;SDS011;11158;53.404;-1.510;2022-11-11T05:42:09;2.75;;;1.00;;
21987;SDS011;11158;53.404;-1.510;2022-11-11T05:44:35;2.20;;;1.10;;
21987;SDS011;11158;53.404;-1.510;2022-11-11T05:47:02;4.20;;;1.63;;
21987;SDS011;11158;53.404;-1.510;2022-11-11T05:49:28;3.95;;;1.23;;
21987;SDS011;11158;53.404;-1.510;2022-11-11T05:51:54;4.38;;;1.20;;
21987;SDS011;11158;53.404;-1.510;2022-11-11T05:54:21;1.63;;;0.88;;
21987;SDS011;11158;53.404;-1.510;2022-11-11T05:56:47;2.83;;;1.00;;
21987;SDS011;11158;53.404;-1.510;2022-11-11T05:59:13;2.63;;;0.88;;
21987;SDS011;11158;53.404;-1.510;2022-11-11T06:01:39;5.35;;;1.25;;
21987;SDS011;11158;53.404;-1.510;2022-11-11T06:04:05;2.92;;;1.20;;
21987;SDS011;11158;53.404;-1.510;2022-11-11T06:06:31;1.75;;;1.20;;
21987;SDS011;11158;53.404;-1.510;2022-11-11T06:08:58;2.03;;;1.20;;
21987;SDS011;11158;53.404;-1.510;2022-11-11T06:11:24;2.78;;;1.08;;
21987;SDS011;11158;53.404;-1.510;2022-11-11T06:13:50;3.42;;;1.10;;
21987;SDS011;11158;53.404;-1.510;2022-11-11T06:16:15;5.60;;;1.33;;
21987;SDS011;11158;53.404;-1.510;2022-11-11T06:18:41;3.13;;;1.20;;
21987;SDS011;11158;53.404;-1.510;2022-11-11T06:21:07;4.10;;;1.00;;
21987;SDS011;11158;53.404;-1.510;2022-11-11T06:23:32;3.33;;;1.13;;
21987;SDS011;11158;53.404;-1.510;2022-11-11T06:25:58;1.40;;;1.05;;
21987;SDS011;11158;53.404;-1.510;2022-11-11T06:28:51;3.40;;;1.20;;
21987;SDS011;11158;53.404;-1.510;2022-11-11T06:31:19;1.70;;;0.85;;
21987;SDS011;11158;53.404;-1.510;2022-11-11T06:33:46;1.42;;;1.00;;
21987;SDS011;11158;53.404;-1.510;2022-11-11T06:36:13;4.85;;;1.23;;
21987;SDS011;11158;53.404;-1.510;2022-11-11T06:38:40;1.75;;;0.95;;
21987;SDS011;11158;53.404;-1.510;2022-11-11T06:41:07;2.70;;;1.00;;
21987;SDS011;11158;53.404;-1.510;2022-11-11T06:43:34;2.45;;;1.08;;
21987;SDS011;11158;53.404;-1.510;2022-11-11T06:46:00;2.53;;;0.98;;
21987;SDS011;11158;53.404;-1.510;2022-11-11T06:48:27;2.70;;;0.85;;
21987;SDS011;11158;53.404;-1.510;2022-11-11T06:50:53;3.42;;;0.90;;
21987;SDS011;11158;53.404;-1.510;2022-11-11T06:53:21;2.58;;;1.00;;
21987;SDS011;11158;53.404;-1.510;2022-11-11T06:55:47;1.92;;;1.02;;
21987;SDS011;11158;53.404;-1.510;2022-11-11T06:58:17;2.85;;;1.10;;
21987;SDS011;11158;53.404;-1.510;2022-11-11T07:00:44;1.92;;;0.90;;
21987;SDS011;11158;53.404;-1.510;2022-11-11T07:03:13;2.25;;;0.73;;
21987;SDS011;11158;53.404;-1.510;2022-11-11T07:05:40;5.30;;;0.95;;
21987;SDS011;11158;53.404;-1.510;2022-11-11T07:08:11;3.63;;;1.52;;
21987;SDS011;11158;53.404;-1.510;2022-11-11T07:10:39;4.53;;;1.08;;
21987;SDS011;11158;53.404;-1.510;2022-11-11T07:13:07;3.05;;;0.90;;
21987;SDS011;11158;53.404;-1.510;2022-11-11T07:15:33;2.45;;;0.90;;
21987;SDS011;11158;53.404;-1.510;2022-11-11T07:17:59;2.13;;;1.10;;
21987;SDS011;11158;53.404;-1.510;2022-11-11T07:20:26;3.85;;;1.00;;
21987;SDS011;11158;53.404;-1.510;2022-11-11T07:22:51;2.97;;;1.02;;
21987;SDS011;11158;53.404;-1.510;2022-11-11T07:25:17;1.58;;;0.63;;
21987;SDS011;11158;53.404;-1.510;2022-11-11T07:27:43;3.13;;;0.88;;
21987;SDS011;11158;53.404;-1.510;2022-11-11T07:30:09;2.50;;;1.00;;
21987;SDS011;11158;53.404;-1.510;2022-11-11T07:32:36;5.28;;;1.45;;
21987;SDS011;11158;53.404;-1.510;2022-11-11T07:35:02;2.83;;;1.30;;
21987;SDS011;11158;53.404;-1.510;2022-11-11T07:37:30;4.28;;;1.70;;
21987;SDS011;11158;53.404;-1.510;2022-11-11T07:39:55;3.38;;;1.35;;
21987;SDS011;11158;53.404;-1.510;2022-11-11T07:42:21;2.65;;;1.20;;
21987;SDS011;11158;53.404;-1.510;2022-11-11T07:44:47;2.30;;;1.23;;
21987;SDS011;11158;53.404;-1.510;2022-11-11T07:47:13;5.47;;;1.48;;
21987;SDS011;11158;53.404;-1.510;2022-11-11T07:49:39;3.15;;;1.60;;
21987;SDS011;11158;53.404;-1.510;2022-11-11T07:52:04;4.95;;;1.60;;
21987;SDS011;11158;53.404;-1.510;2022-11-11T07:54:30;3.95;;;1.40;;
21987;SDS011;11158;53.404;-1.510;2022-11-11T07:56:56;4.20;;;1.48;;
21987;SDS011;11158;53.404;-1.510;2022-11-11T07:59:22;4.55;;;1.50;;
21987;SDS011;11158;53.404;-1.510;2022-11-11T08:01:48;4.07;;;1.40;;
21987;SDS011;11158;53.404;-1.510;2022-11-11T08:04:13;7.20;;;1.33;;
21987;SDS011;11158;53.404;-1.510;2022-11-11T08:06:39;3.20;;;1.10;;
21987;SDS011;11158;53.404;-1.510;2022-11-11T08:09:05;2.67;;;0.88;;
21987;SDS011;11158;53.404;-1.510;2022-11-11T08:11:30;5.82;;;1.45;;
21987;SDS011;11158;53.404;-1.510;2022-11-11T08:14:14;4.03;;;1.30;;
21987;SDS011;11158;53.404;-1.510;2022-11-11T08:16:40;5.95;;;1.10;;
21987;SDS011;11158;53.404;-1.510;2022-11-11T08:19:06;6.55;;;1.25;;
21987;SDS011;11158;53.404;-1.510;2022-11-11T08:21:31;4.13;;;1.38;;
21987;SDS011;11158;53.404;-1.510;2022-11-11T08:23:57;2.55;;;1.52;;
21987;SDS011;11158;53.404;-1.510;2022-11-11T08:26:22;2.45;;;0.80;;
21987;SDS011;11158;53.404;-1.510;2022-11-11T08:28:50;3.90;;;1.20;;
21987;SDS011;11158;53.404;-1.510;2022-11-11T08:31:16;4.20;;;1.10;;
21987;SDS011;11158;53.404;-1.510;2022-11-11T08:33:42;3.47;;;0.90;;
21987;SDS011;11158;53.404;-1.510;2022-11-11T08:36:08;2.10;;;0.90;;
21987;SDS011;11158;53.404;-1.510;2022-11-11T08:38:37;3.60;;;0.80;;
21987;SDS011;11158;53.404;-1.510;2022-11-11T08:41:04;2.13;;;0.75;;
21987;SDS011;11158;53.404;-1.510;2022-11-11T08:43:31;2.70;;;0.95;;
21987;SDS011;11158;53.404;-1.510;2022-11-11T08:45:58;2.00;;;0.75;;
21987;SDS011;11158;53.404;-1.510;2022-11-11T08:48:25;3.40;;;0.80;;
21987;SDS011;11158;53.404;-1.510;2022-11-11T08:50:52;2.53;;;0.80;;
21987;SDS011;11158;53.404;-1.510;2022-11-11T08:53:18;2.35;;;1.00;;
21987;SDS011;11158;53.404;-1.510;2022-11-11T08:55:44;4.05;;;0.88;;
21987;SDS011;11158;53.404;-1.510;2022-11-11T08:58:11;1.80;;;0.90;;
21987;SDS011;11158;53.404;-1.510;2022-11-11T09:00:37;4.68;;;1.05;;
21987;SDS011;11158;53.404;-1.510;2022-11-11T09:03:05;2.10;;;1.00;;
21987;SDS011;11158;53.404;-1.510;2022-11-11T09:05:33;4.00;;;1.23;;
21987;SDS011;11158;53.404;-1.510;2022-11-11T09:08:00;2.90;;;1.17;;
21987;SDS011;11158;53.404;-1.510;2022-11-11T09:10:26;5.63;;;1.15;;
21987;SDS011;11158;53.404;-1.510;2022-11-11T09:12:59;2.25;;;1.20;;
21987;SDS011;11158;53.404;-1.510;2022-11-11T09:15:26;4.70;;;1.40;;
21987;SDS011;11158;53.404;-1.510;2022-11-11T09:17:52;6.28;;;1.67;;
21987;SDS011;11158;53.404;-1.510;2022-11-11T09:20:18;4.22;;;1.25;;
21987;SDS011;11158;53.404;-1.510;2022-11-11T09:22:45;3.40;;;0.93;;
21987;SDS011;11158;53.404;-1.510;2022-11-11T09:25:11;2.08;;;1.08;;
21987;SDS011;11158;53.404;-1.510;2022-11-11T09:27:38;3.90;;;0.98;;
21987;SDS011;11158;53.404;-1.510;2022-11-11T09:30:04;4.28;;;1.00;;
21987;SDS011;11158;53.404;-1.510;2022-11-11T09:32:30;4.13;;;1.10;;
21987;SDS011;11158;53.404;-1.510;2022-11-11T09:34:57;4.53;;;1.10;;
21987;SDS011;11158;53.404;-1.510;2022-11-11T09:37:24;4.80;;;1.10;;
21987;SDS011;11158;53.404;-1.510;2022-11-11T09:39:50;3.05;;;1.25;;
21987;SDS011;11158;53.404;-1.510;2022-11-11T09:50:17;1.75;;;0.73;;
21987;SDS011;11158;53.404;-1.510;2022-11-11T09:52:59;3.10;;;1.05;;
21987;SDS011;11158;53.404;-1.510;2022-11-11T09:55:40;2.45;;;0.88;;
21987;SDS011;11158;53.404;-1.510;2022-11-11T10:01:16;3.92;;;1.05;;
21987;SDS011;11158;53.404;-1.510;2022-11-11T10:03:46;1.92;;;1.10;;
21987;SDS011;11158;53.404;-1.510;2022-11-11T10:06:22;3.85;;;1.08;;
21987;SDS011;11158;53.404;-1.510;2022-11-11T10:08:58;2.47;;;1.05;;
21987;SDS011;11158;53.404;-1.510;2022-11-11T10:14:39;5.80;;;1.33;;
21987;SDS011;11158;53.404;-1.510;2022-11-11T10:20:21;3.80;;;1.00;;
21987;SDS011;11158;53.404;-1.510;2022-11-11T10:22:42;2.90;;;1.17;;
21987;SDS011;11158;53.404;-1.510;2022-11-11T10:27:45;4.10;;;1.20;;
21987;SDS011;11158;53.404;-1.510;2022-11-11T10:30:29;2.92;;;0.90;;
21987;SDS011;11158;53.404;-1.510;2022-11-11T10:35:31;1.45;;;0.77;;
21987;SDS011;11158;53.404;-1.510;2022-11-11T10:38:00;4.25;;;1.02;;
21987;SDS011;11158;53.404;-1.510;2022-11-11T10:40:28;2.28;;;0.95;;
21987;SDS011;11158;53.404;-1.510;2022-11-11T10:43:22;4.57;;;0.90;;
21987;SDS011;11158;53.404;-1.510;2022-11-11T10:48:49;3.65;;;1.10;;
21987;SDS011;11158;53.404;-1.510;2022-11-11T10:51:19;4.13;;;1.55;;
21987;SDS011;11158;53.404;-1.510;2022-11-11T11:01:47;4.75;;;0.88;;
21987;SDS011;11158;53.404;-1.510;2022-11-11T11:04:19;3.13;;;1.00;;
21987;SDS011;11158;53.404;-1.510;2022-11-11T11:06:51;1.88;;;0.80;;
21987;SDS011;11158;53.404;-1.510;2022-11-11T11:09:19;3.28;;;1.10;;
21987;SDS011;11158;53.404;-1.510;2022-11-11T11:15:07;6.45;;;1.20;;
21987;SDS011;11158;53.404;-1.510;2022-11-11T11:17:39;4.03;;;1.02;;
21987;SDS011;11158;53.404;-1.510;2022-11-11T11:20:19;2.88;;;1.27;;
21987;SDS011;11158;53.404;-1.510;2022-11-11T11:22:50;3.63;;;1.05;;
21987;SDS011;11158;53.404;-1.510;2022-11-11T11:25:21;2.80;;;0.90;;
21987;SDS011;11158;53.404;-1.510;2022-11-11T11:27:48;3.80;;;0.90;;
21987;SDS011;11158;53.404;-1.510;2022-11-11T11:30:17;4.57;;;1.55;;
21987;SDS011;11158;53.404;-1.510;2022-11-11T11:33:00;6.47;;;1.25;;
21987;SDS011;11158;53.404;-1.510;2022-11-11T11:35:38;3.15;;;1.10;;
21987;SDS011;11158;53.404;-1.510;2022-11-11T11:38:05;3.05;;;1.30;;
21987;SDS011;11158;53.404;-1.510;2022-11-11T11:45:56;4.78;;;1.45;;
21987;SDS011;11158;53.404;-1.510;2022-11-11T11:54:12;3.72;;;1.40;;
21987;SDS011;11158;53.404;-1.510;2022-11-11T11:56:47;4.13;;;1.90;;
21987;SDS011;11158;53.404;-1.510;2022-11-11T11:59:18;2.00;;;1.30;;
21987;SDS011;11158;53.404;-1.510;2022-11-11T12:10:19;2.97;;;1.52;;
21987;SDS011;11158;53.404;-1.510;2022-11-11T12:20:49;5.13;;;1.75;;
21987;SDS011;11158;53.404;-1.510;2022-11-11T12:31:48;3.05;;;1.40;;
21987;SDS011;11158;53.404;-1.510;2022-11-11T12:37:14;4.32;;;1.58;;
21987;SDS011;11158;53.404;-1.510;2022-11-11T12:49:57;1.73;;;0.70;;
21987;SDS011;11158;53.404;-1.510;2022-11-11T12:55:23;4.28;;;1.10;;
21987;SDS011;11158;53.404;-1.510;2022-11-11T13:03:50;2.10;;;0.90;;
21987;SDS011;11158;53.404;-1.510;2022-11-11T13:09:28;1.63;;;1.00;;
21987;SDS011;11158;53.404;-1.510;2022-11-11T13:14:42;4.45;;;1.17;;
21987;SDS011;11158;53.404;-1.510;2022-11-11T13:17:20;3.85;;;1.10;;
21987;SDS011;11158;53.404;-1.510;2022-11-11T13:22:25;4.63;;;1.13;;
21987;SDS011;11158;53.404;-1.510;2022-11-11T13:24:53;2.97;;;0.85;;
21987;SDS011;11158;53.404;-1.510;2022-11-11T13:35:31;3.22;;;0.90;;
21987;SDS011;11158;53.404;-1.510;2022-11-11T13:38:05;2.42;;;1.00;;
21987;SDS011;11158;53.404;-1.510;2022-11-11T13:40:41;2.78;;;0.75;;
21987;SDS011;11158;53.404;-1.510;2022-11-11T13:43:44;2.35;;;0.75;;
21987;SDS011;11158;53.404;-1.510;2022-11-11T13:48:56;2.45;;;1.05;;
21987;SDS011;11158;53.404;-1.510;2022-11-11T13:51:29;3.75;;;1.13;;
21987;SDS011;11158;53.404;-1.510;2022-11-11T13:53:59;2.08;;;0.60;;
21987;SDS011;11158;53.404;-1.510;2022-11-11T13:59:02;1.80;;;1.02;;
21987;SDS011;11158;53.404;-1.510;2022-11-11T14:01:32;3.53;;;0.98;;
21987;SDS011;11158;53.404;-1.510;2022-11-11T14:04:05;3.33;;;1.25;;
21987;SDS011;11158;53.404;-1.510;2022-11-11T14:08:58;2.47;;;0.90;;
21987;SDS011;11158;53.404;-1.510;2022-11-11T14:13:51;2.28;;;0.95;;
21987;SDS011;11158;53.404;-1.510;2022-11-11T14:24:25;3.63;;;0.85;;
21987;SDS011;11158;53.404;-1.510;2022-11-11T14:27:03;2.83;;;0.90;;
21987;SDS011;11158;53.404;-1.510;2022-11-11T14:29:51;3.88;;;0.93;;
21987;SDS011;11158;53.404;-1.510;2022-11-11T14:32:27;2.60;;;0.70;;
21987;SDS011;11158;53.404;-1.510;2022-11-11T14:40:22;4.05;;;0.88;;
21987;SDS011;11158;53.404;-1.510;2022-11-11T14:42:52;2.58;;;1.15;;
21987;SDS011;11158;53.404;-1.510;2022-11-11T14:47:47;3.15;;;1.20;;
21987;SDS011;11158;53.404;-1.510;2022-11-11T14:52:54;1.15;;;0.70;;
21987;SDS011;11158;53.404;-1.510;2022-11-11T15:03:20;4.53;;;1.05;;
21987;SDS011;11158;53.404;-1.510;2022-11-11T15:06:05;1.67;;;0.80;;
21987;SDS011;11158;53.404;-1.510;2022-11-11T15:14:36;1.55;;;0.90;;
21987;SDS011;11158;53.404;-1.510;2022-11-11T15:28:02;2.97;;;0.90;;
21987;SDS011;11158;53.404;-1.510;2022-11-11T15:39:04;3.45;;;2.08;;
21987;SDS011;11158;53.404;-1.510;2022-11-11T15:41:35;3.17;;;0.90;;
21987;SDS011;11158;53.404;-1.510;2022-11-11T15:44:24;3.97;;;1.02;;
21987;SDS011;11158;53.404;-1.510;2022-11-11T15:46:53;3.05;;;0.77;;
21987;SDS011;11158;53.404;-1.510;2022-11-11T15:54:47;1.70;;;1.02;;
21987;SDS011;11158;53.404;-1.510;2022-11-11T15:57:27;2.33;;;0.80;;
21987;SDS011;11158;53.404;-1.510;2022-11-11T15:59:54;1.88;;;1.08;;
21987;SDS011;11158;53.404;-1.510;2022-11-11T16:02:22;1.58;;;0.90;;
21987;SDS011;11158;53.404;-1.510;2022-11-11T16:04:54;2.25;;;1.10;;
21987;SDS011;11158;53.404;-1.510;2022-11-11T16:07:24;2.95;;;1.15;;
21987;SDS011;11158;53.404;-1.510;2022-11-11T16:09:57;5.45;;;1.40;;
21987;SDS011;11158;53.404;-1.510;2022-11-11T16:12:27;4.20;;;1.48;;
21987;SDS011;11158;53.404;-1.510;2022-11-11T16:15:01;3.63;;;1.00;;
21987;SDS011;11158;53.404;-1.510;2022-11-11T16:17:33;4.80;;;1.00;;
21987;SDS011;11158;53.404;-1.510;2022-11-11T16:20:10;4.97;;;1.40;;
21987;SDS011;11158;53.404;-1.510;2022-11-11T16:22:39;3.70;;;1.17;;
21987;SDS011;11158;53.404;-1.510;2022-11-11T16:25:11;1.67;;;1.00;;
21987;SDS011;11158;53.404;-1.510;2022-11-11T16:27:41;4.70;;;1.05;;
21987;SDS011;11158;53.404;-1.510;2022-11-11T16:30:14;1.60;;;1.20;;
21987;SDS011;11158;53.404;-1.510;2022-11-11T16:32:56;6.15;;;1.60;;
21987;SDS011;11158;53.404;-1.510;2022-11-11T16:35:33;5.35;;;1.67;;
21987;SDS011;11158;53.404;-1.510;2022-11-11T16:38:01;4.97;;;1.27;;
21987;SDS011;11158;53.404;-1.510;2022-11-11T16:45:45;6.72;;;2.25;;
21987;SDS011;11158;53.404;-1.510;2022-11-11T16:50:57;8.65;;;3.20;;
21987;SDS011;11158;53.404;-1.510;2022-11-11T16:53:31;5.47;;;2.35;;
21987;SDS011;11158;53.404;-1.510;2022-11-11T16:56:01;4.97;;;1.90;;
21987;SDS011;11158;53.404;-1.510;2022-11-11T16:58:28;3.85;;;1.60;;
21987;SDS011;11158;53.404;-1.510;2022-11-11T17:01:00;6.95;;;1.48;;
21987;SDS011;11158;53.404;-1.510;2022-11-11T17:03:27;3.30;;;1.85;;
21987;SDS011;11158;53.404;-1.510;2022-11-11T17:06:01;4.22;;;1.40;;
21987;SDS011;11158;53.404;-1.510;2022-11-11T17:11:03;6.10;;;1.77;;
21987;SDS011;11158;53.404;-1.510;2022-11-11T17:13:31;5.57;;;1.80;;
21987;SDS011;11158;53.404;-1.510;2022-11-11T17:16:00;8.15;;;3.22;;
21987;SDS011;11158;53.404;-1.510;2022-11-11T17:18:33;5.22;;;1.85;;
21987;SDS011;11158;53.404;-1.510;2022-11-11T17:21:01;5.28;;;1.80;;
21987;SDS011;11158;53.404;-1.510;2022-11-11T17:23:27;3.95;;;1.83;;
21987;SDS011;11158;53.404;-1.510;2022-11-11T17:25:56;4.18;;;1.67;;
21987;SDS011;11158;53.404;-1.510;2022-11-11T17:28:28;4.80;;;1.80;;
21987;SDS011;11158;53.404;-1.510;2022-11-11T17:30:55;7.40;;;1.83;;
21987;SDS011;11158;53.404;-1.510;2022-11-11T17:33:25;3.85;;;1.88;;
21987;SDS011;11158;53.404;-1.510;2022-11-11T17:35:51;4.82;;;2.17;;
21987;SDS011;11158;53.404;-1.510;2022-11-11T17:38:18;4.38;;;2.00;;
21987;SDS011;11158;53.404;-1.510;2022-11-11T17:40:44;4.30;;;1.85;;
21987;SDS011;11158;53.404;-1.510;2022-11-11T17:43:11;5.60;;;2.10;;
21987;SDS011;11158;53.404;-1.510;2022-11-11T17:45:37;15.35;;;4.60;;
21987;SDS011;11158;53.404;-1.510;2022-11-11T17:48:04;14.88;;;4.93;;
21987;SDS011;11158;53.404;-1.510;2022-11-11T17:50:30;7.90;;;3.35;;
21987;SDS011;11158;53.404;-1.510;2022-11-11T17:52:55;7.13;;;2.17;;
21987;SDS011;11158;53.404;-1.510;2022-11-11T17:55:21;4.60;;;1.73;;
21987;SDS011;11158;53.404;-1.510;2022-11-11T17:57:48;6.18;;;1.88;;
21987;SDS011;11158;53.404;-1.510;2022-11-11T18:00:14;5.68;;;1.70;;
21987;SDS011;11158;53.404;-1.510;2022-11-11T18:02:41;5.28;;;2.08;;
21987;SDS011;11158;53.404;-1.510;2022-11-11T18:05:07;5.60;;;1.88;;
21987;SDS011;11158;53.404;-1.510;2022-11-11T18:07:33;4.68;;;2.40;;
21987;SDS011;11158;53.404;-1.510;2022-11-11T18:10:00;4.18;;;1.80;;
21987;SDS011;11158;53.404;-1.510;2022-11-11T18:12:27;3.58;;;2.08;;
21987;SDS011;11158;53.404;-1.510;2022-11-11T18:14:54;6.78;;;2.03;;
21987;SDS011;11158;53.404;-1.510;2022-11-11T18:17:20;7.60;;;2.10;;
21987;SDS011;11158;53.404;-1.510;2022-11-11T18:19:46;6.35;;;1.85;;
21987;SDS011;11158;53.404;-1.510;2022-11-11T18:22:11;6.55;;;2.47;;
21987;SDS011;11158;53.404;-1.510;2022-11-11T18:24:38;4.22;;;1.75;;